createdAt,value
2023-05-10T00:01:38.946Z,65.61
2023-05-10T00:04:41.214Z,66.11
2023-05-10T00:07:45.875Z,66.21
2023-05-10T00:10:48.355Z,66.24
2023-05-10T00:13:50.733Z,66.76
2023-05-10T00:16:53.168Z,66.90
2023-05-10T00:19:55.662Z,66.89
2023-05-10T00:22:57.940Z,67.51
2023-05-10T00:26:00.198Z,67.80
2023-05-10T00:29:02.542Z,67.59
2023-05-10T00:32:05.120Z,68.22
2023-05-10T00:35:07.792Z,68.30
2023-05-10T00:38:10.220Z,68.51
2023-05-10T00:41:12.503Z,68.05
2023-05-10T00:44:16.477Z,69.41
2023-05-10T00:47:18.769Z,69.16
2023-05-10T00:50:21.075Z,69.74
2023-05-10T00:53:23.476Z,69.34
2023-05-10T00:56:26.591Z,69.34
2023-05-10T00:59:29.726Z,68.90
2023-05-10T01:02:32.095Z,69.85
2023-05-10T01:05:34.468Z,69.17
2023-05-10T01:08:37.763Z,69.20
2023-05-10T01:11:41.067Z,69.36
2023-05-10T01:14:44.196Z,69.22
2023-05-10T01:17:48.432Z,68.39
2023-05-10T01:21:04.374Z,68.00
2023-05-10T01:24:18.745Z,69.63
2023-05-10T01:27:48.798Z,69.73
2023-05-10T01:31:33.120Z,68.99
2023-05-10T01:34:45.036Z,69.43
2023-05-10T01:38:19.584Z,68.80
2023-05-10T01:41:37.350Z,69.44
2023-05-10T01:44:59.585Z,68.60
2023-05-10T01:48:12.202Z,71.45
2023-05-10T01:51:20.711Z,73.04
2023-05-10T01:54:24.702Z,70.85
2023-05-10T01:57:29.032Z,70.86
2023-05-10T02:00:34.485Z,70.66
2023-05-10T02:03:39.422Z,70.53
2023-05-10T02:06:43.901Z,72.22
2023-05-10T02:09:50.861Z,71.56
2023-05-10T02:12:56.235Z,70.83
2023-05-10T02:16:00.156Z,71.03
2023-05-10T02:19:03.704Z,70.79
2023-05-10T02:22:07.164Z,71.29
2023-05-10T02:25:10.257Z,70.95
2023-05-10T02:28:13.832Z,71.72
2023-05-10T02:31:16.484Z,72.31
2023-05-10T02:34:18.902Z,71.93
2023-05-10T02:37:22.988Z,72.34
2023-05-10T02:40:28.764Z,71.85
2023-05-10T02:43:34.645Z,72.39
2023-05-10T02:46:38.635Z,71.81
2023-05-10T02:49:41.233Z,72.46
2023-05-10T02:52:49.057Z,72.57
2023-05-10T02:55:53.823Z,73.84
2023-05-10T02:58:56.597Z,76.20
2023-05-10T03:02:00.896Z,76.85
2023-05-10T03:05:04.123Z,77.86
2023-05-10T03:08:07.195Z,77.67
2023-05-10T03:11:40.889Z,78.67
2023-05-10T03:14:56.613Z,77.62
2023-05-10T03:18:29.629Z,78.97
2023-05-10T03:21:32.883Z,79.64
2023-05-10T03:24:37.758Z,79.66
2023-05-10T03:27:42.985Z,79.45
2023-05-10T03:30:47.189Z,78.20
2023-05-10T03:33:50.782Z,79.02
2023-05-10T03:36:58.182Z,80.74
2023-05-10T03:40:04.868Z,79.25
2023-05-10T03:43:10.418Z,81.17
2023-05-10T03:46:12.995Z,79.27
2023-05-10T03:49:15.526Z,79.58
2023-05-10T03:52:19.111Z,80.28
2023-05-10T03:55:21.780Z,79.95
2023-05-10T03:58:24.382Z,77.58
2023-05-10T04:01:26.770Z,77.84
2023-05-10T04:04:29.309Z,77.59
2023-05-10T04:07:31.707Z,79.33
2023-05-10T04:10:34.246Z,78.74
2023-05-10T04:13:36.680Z,77.51
2023-05-10T04:16:39.614Z,77.81
2023-05-10T04:19:41.870Z,77.74
2023-05-10T04:22:44.216Z,77.81
2023-05-10T04:25:46.516Z,77.42
2023-05-10T04:28:48.842Z,78.41
2023-05-10T04:31:51.970Z,76.64
2023-05-10T04:34:54.483Z,77.65
2023-05-10T04:37:57.145Z,78.08
2023-05-10T04:41:10.478Z,78.74
2023-05-10T04:44:12.811Z,76.00
2023-05-10T04:47:15.176Z,77.10
2023-05-10T04:50:17.772Z,76.14
2023-05-10T04:53:20.630Z,77.48
2023-05-10T04:56:23.531Z,76.90
2023-05-10T04:59:25.862Z,74.58
2023-05-10T05:02:28.305Z,76.72
2023-05-10T05:05:30.703Z,73.15
2023-05-10T05:08:33.078Z,73.53
2023-05-10T05:11:35.565Z,73.56
2023-05-10T05:14:37.857Z,73.19
2023-05-10T05:17:40.217Z,72.39
2023-05-10T05:20:42.632Z,73.88
2023-05-10T05:23:45.031Z,73.23
2023-05-10T05:26:47.485Z,72.94
2023-05-10T05:29:49.803Z,71.02
2023-05-10T05:32:52.593Z,73.74
2023-05-10T05:35:55.026Z,70.18
2023-05-10T05:38:57.609Z,68.32
2023-05-10T05:42:00.033Z,68.14
2023-05-10T05:45:02.373Z,66.08
2023-05-10T05:48:05.358Z,65.61
2023-05-10T05:51:07.686Z,63.06
2023-05-10T05:54:10.120Z,63.45
2023-05-10T05:57:12.842Z,62.64
2023-05-10T06:00:15.578Z,57.66
2023-05-10T06:03:18.012Z,57.06
2023-05-10T06:06:20.802Z,54.03
2023-05-10T06:09:24.951Z,48.14
2023-05-10T06:12:27.300Z,45.97
2023-05-10T06:15:29.630Z,46.32
2023-05-10T06:18:32.122Z,43.86
2023-05-10T06:21:34.478Z,43.70
2023-05-10T06:24:36.864Z,42.26
2023-05-10T06:27:39.379Z,41.76
2023-05-10T06:30:41.632Z,45.19
2023-05-10T06:33:43.931Z,42.77
2023-05-10T06:36:46.582Z,47.38
2023-05-10T06:39:49.525Z,48.21
2023-05-10T06:42:52.276Z,50.22
2023-05-10T06:45:54.629Z,50.38
2023-05-10T06:48:56.959Z,49.68
2023-05-10T06:51:59.261Z,48.10
2023-05-10T06:55:01.551Z,48.75
2023-05-10T06:58:04.001Z,48.71
2023-05-10T07:01:06.955Z,48.25
2023-05-10T07:04:09.635Z,46.94
2023-05-10T07:07:12.092Z,46.85
2023-05-10T07:10:14.577Z,45.86
2023-05-10T07:13:17.040Z,46.44
2023-05-10T07:16:19.916Z,44.27
2023-05-10T07:19:31.731Z,42.34
2023-05-10T07:22:34.924Z,41.33
2023-05-10T07:25:37.206Z,43.79
2023-05-10T07:28:40.159Z,45.32
2023-05-10T07:31:43.838Z,43.21
2023-05-10T07:34:46.117Z,46.07
2023-05-10T07:37:48.613Z,45.68
2023-05-10T07:40:50.948Z,46.19
2023-05-10T07:43:53.295Z,47.76
2023-05-10T07:46:56.630Z,44.59
2023-05-10T07:49:58.879Z,44.17
2023-05-10T07:53:01.329Z,42.79
2023-05-10T07:56:33.398Z,41.96
2023-05-10T07:59:35.754Z,43.06
2023-05-10T08:02:38.613Z,47.00
2023-05-10T08:05:41.573Z,45.28
2023-05-10T08:08:44.023Z,44.99
2023-05-10T08:11:46.425Z,47.85
2023-05-10T08:14:48.937Z,47.45
2023-05-10T08:17:51.342Z,43.70
2023-05-10T08:20:53.698Z,40.20
2023-05-10T08:23:59.938Z,39.55
2023-05-10T08:27:02.296Z,36.23
2023-05-10T08:30:04.912Z,35.57
2023-05-10T08:33:07.269Z,38.00
2023-05-10T08:36:09.844Z,39.67
2023-05-10T08:39:22.964Z,43.29
2023-05-10T08:42:32.078Z,41.51
2023-05-10T08:45:41.386Z,40.71
2023-05-10T08:48:44.932Z,41.59
2023-05-10T08:51:55.922Z,40.77
2023-05-10T08:54:58.673Z,43.67
2023-05-10T08:58:01.460Z,45.92
2023-05-10T09:01:04.541Z,43.37
2023-05-10T09:04:07.513Z,44.14
2023-05-10T09:07:09.890Z,44.62
2023-05-10T09:10:12.703Z,42.01
2023-05-10T09:13:19.014Z,38.93
2023-05-10T09:16:22.440Z,42.57
2023-05-10T09:19:25.024Z,41.57
2023-05-10T09:22:28.302Z,44.43
2023-05-10T09:25:30.765Z,44.61
2023-05-10T09:28:51.456Z,47.22
2023-05-10T09:31:55.834Z,46.53
2023-05-10T09:34:58.383Z,45.82
2023-05-10T09:38:04.505Z,44.56
2023-05-10T09:41:18.439Z,38.73
2023-05-10T09:44:20.876Z,39.31
2023-05-10T09:47:23.454Z,41.43
2023-05-10T09:50:26.709Z,41.82
2023-05-10T09:53:29.160Z,41.56
2023-05-10T09:56:40.012Z,42.58
2023-05-10T09:59:44.308Z,41.92
2023-05-10T10:02:56.585Z,39.10
2023-05-10T10:05:59.075Z,35.70
2023-05-10T10:09:01.463Z,32.93
2023-05-10T10:12:04.654Z,35.75
2023-05-10T10:15:08.721Z,34.92
2023-05-10T10:18:16.236Z,35.63
2023-05-10T10:21:18.693Z,38.27
2023-05-10T10:24:20.870Z,34.88
2023-05-10T10:27:29.653Z,37.43
2023-05-10T10:30:48.014Z,38.94
2023-05-10T10:33:59.707Z,38.51
2023-05-10T10:37:06.380Z,40.20
2023-05-10T10:40:44.340Z,40.16
2023-05-10T10:43:46.647Z,40.53
2023-05-10T10:47:02.606Z,40.77
2023-05-10T10:50:09.016Z,40.38
2023-05-10T10:53:12.392Z,43.56
2023-05-10T10:56:16.318Z,42.87
2023-05-10T10:59:28.911Z,44.10
2023-05-10T11:02:46.820Z,44.38
2023-05-10T11:05:50.557Z,42.60
2023-05-10T11:08:53.878Z,40.35
2023-05-10T11:11:56.529Z,40.70
2023-05-10T11:14:59.047Z,38.52
2023-05-10T11:18:37.440Z,38.47
2023-05-10T11:22:14.090Z,39.75
2023-05-10T11:25:16.402Z,42.40
2023-05-10T11:28:20.464Z,40.50
2023-05-10T11:31:23.961Z,40.72
2023-05-10T11:34:36.387Z,41.22
2023-05-10T11:37:42.220Z,41.74
2023-05-10T11:40:44.672Z,42.65
2023-05-10T11:43:48.850Z,39.35
2023-05-10T11:46:51.382Z,41.77
2023-05-10T11:49:54.287Z,39.02
2023-05-10T11:52:57.766Z,39.31
2023-05-10T11:56:11.164Z,38.81
2023-05-10T11:59:16.020Z,38.98
2023-05-10T12:02:18.512Z,41.12
2023-05-10T12:05:21.102Z,40.75
2023-05-10T12:08:25.787Z,40.71
2023-05-10T12:11:29.733Z,39.15
2023-05-10T12:14:36.179Z,40.99
2023-05-10T12:17:41.978Z,41.54
2023-05-10T12:20:45.649Z,39.96
2023-05-10T12:23:49.727Z,42.38
2023-05-10T12:26:51.979Z,42.28
2023-05-10T12:29:55.690Z,40.60
2023-05-10T12:33:12.568Z,43.37
2023-05-10T12:36:16.667Z,42.25
2023-05-10T12:39:19.056Z,40.81
2023-05-10T12:42:21.831Z,42.63
2023-05-10T12:45:24.170Z,41.42
2023-05-10T12:48:26.761Z,41.00
2023-05-10T12:51:29.066Z,41.71
2023-05-10T12:54:31.600Z,40.06
2023-05-10T12:57:34.359Z,38.96
2023-05-10T13:00:38.953Z,39.79
2023-05-10T13:03:41.250Z,39.64
2023-05-10T13:06:43.562Z,39.75
2023-05-10T13:09:45.979Z,40.85
2023-05-10T13:12:48.265Z,41.31
2023-05-10T13:15:50.713Z,42.10
2023-05-10T13:18:53.111Z,39.96
2023-05-10T13:21:55.504Z,38.76
2023-05-10T13:24:57.917Z,40.75
2023-05-10T13:28:00.215Z,40.54
2023-05-10T13:31:02.515Z,41.57
2023-05-10T13:34:06.198Z,38.87
2023-05-10T13:37:08.461Z,39.66
2023-05-10T13:40:11.579Z,37.58
2023-05-10T13:43:13.842Z,38.47
2023-05-10T13:46:16.314Z,38.36
2023-05-10T13:49:18.599Z,38.86
2023-05-10T13:52:21.132Z,38.40
2023-05-10T13:55:23.465Z,38.57
2023-05-10T13:58:25.760Z,37.67
2023-05-10T14:01:28.051Z,37.81
2023-05-10T14:04:31.354Z,36.96
2023-05-10T14:07:33.647Z,36.32
2023-05-10T14:10:35.958Z,37.27
2023-05-10T14:13:38.370Z,38.38
2023-05-10T14:16:45.413Z,39.60
2023-05-10T14:19:47.757Z,38.24
2023-05-10T14:22:50.194Z,39.25
2023-05-10T14:25:53.494Z,39.67
2023-05-10T14:28:55.889Z,39.38
2023-05-10T14:31:58.297Z,39.62
2023-05-10T14:35:00.904Z,40.97
2023-05-10T14:38:04.765Z,40.42
2023-05-10T14:41:07.917Z,42.89
2023-05-10T14:44:11.332Z,43.84
2023-05-10T14:47:13.625Z,41.93
2023-05-10T14:50:24.993Z,42.28
2023-05-10T14:53:37.537Z,41.90
2023-05-10T14:56:39.932Z,40.71
2023-05-10T14:59:42.149Z,41.23
2023-05-10T15:02:44.767Z,40.99
2023-05-10T15:05:47.680Z,41.89
2023-05-10T15:08:49.951Z,39.50
2023-05-10T15:11:52.301Z,41.09
2023-05-10T15:14:54.714Z,41.02
2023-05-10T15:17:57.161Z,41.50
2023-05-10T15:20:59.494Z,41.18
2023-05-10T15:24:02.056Z,42.02
2023-05-10T15:27:04.387Z,42.58
2023-05-10T15:30:07.503Z,42.64
2023-05-10T15:33:09.905Z,43.78
2023-05-10T15:36:12.402Z,42.62
2023-05-10T15:39:14.690Z,43.53
2023-05-10T15:42:17.070Z,43.27
2023-05-10T15:45:19.960Z,45.35
2023-05-10T15:48:22.438Z,46.42
2023-05-10T15:51:24.714Z,45.47
2023-05-10T15:54:27.075Z,45.77
2023-05-10T15:57:29.445Z,47.81
2023-05-10T16:00:31.757Z,46.55
2023-05-10T16:03:37.299Z,47.53
2023-05-10T16:06:39.923Z,47.02
2023-05-10T16:09:42.239Z,46.77
2023-05-10T16:12:44.579Z,46.37
2023-05-10T16:15:47.050Z,49.00
2023-05-10T16:18:49.434Z,47.61
2023-05-10T16:21:51.854Z,46.06
2023-05-10T16:24:54.302Z,47.29
2023-05-10T16:27:56.601Z,47.09
2023-05-10T16:30:59.027Z,48.29
2023-05-10T16:34:01.459Z,46.63
2023-05-10T16:37:04.212Z,48.64
2023-05-10T16:40:08.839Z,46.88
2023-05-10T16:43:11.343Z,47.27
2023-05-10T16:46:13.655Z,46.53
2023-05-10T16:49:16.556Z,46.86
2023-05-10T16:52:18.864Z,44.77
2023-05-10T16:55:22.049Z,46.16
2023-05-10T16:58:25.532Z,45.93
2023-05-10T17:01:28.000Z,46.19
2023-05-10T17:04:30.340Z,47.77
2023-05-10T17:07:32.660Z,47.23
2023-05-10T17:10:35.591Z,46.40
2023-05-10T17:13:38.934Z,48.97
2023-05-10T17:16:41.979Z,47.71
2023-05-10T17:19:47.608Z,47.87
2023-05-10T17:22:49.999Z,50.17
2023-05-10T17:25:52.308Z,49.22
2023-05-10T17:28:55.354Z,48.53
2023-05-10T17:31:58.595Z,49.16
2023-05-10T17:35:01.338Z,49.22
2023-05-10T17:38:03.704Z,48.67
2023-05-10T17:41:06.089Z,49.36
2023-05-10T17:44:08.370Z,50.93
2023-05-10T17:47:10.770Z,49.79
2023-05-10T17:50:13.446Z,50.18
2023-05-10T17:53:15.846Z,49.29
2023-05-10T17:56:18.202Z,50.29
2023-05-10T17:59:21.565Z,51.72
2023-05-10T18:02:24.044Z,51.29
2023-05-10T18:05:26.648Z,51.03
2023-05-10T18:08:30.917Z,51.37
2023-05-10T18:11:35.247Z,51.04
2023-05-10T18:14:41.100Z,52.06
2023-05-10T18:17:44.040Z,51.98
2023-05-10T18:20:46.838Z,53.85
2023-05-10T18:23:49.579Z,53.37
2023-05-10T18:26:52.081Z,52.80
2023-05-10T18:29:54.697Z,54.09
2023-05-10T18:32:58.108Z,53.91
2023-05-10T18:36:00.897Z,54.08
2023-05-10T18:39:03.374Z,53.84
2023-05-10T18:42:08.470Z,55.24
2023-05-10T18:45:11.654Z,54.54
2023-05-10T18:48:14.058Z,54.55
2023-05-10T18:51:16.462Z,54.72
2023-05-10T18:54:18.989Z,54.71
2023-05-10T18:57:22.059Z,54.39
2023-05-10T19:00:24.538Z,54.39
2023-05-10T19:03:27.042Z,56.08
2023-05-10T19:06:29.294Z,55.34
2023-05-10T19:09:32.233Z,55.25
2023-05-10T19:12:34.735Z,54.62
2023-05-10T19:15:37.091Z,55.27
2023-05-10T19:18:40.021Z,55.55
2023-05-10T19:21:42.366Z,55.96
2023-05-10T19:24:45.710Z,55.08
2023-05-10T19:27:48.292Z,56.40
2023-05-10T19:30:50.659Z,54.78
2023-05-10T19:33:53.730Z,54.28
2023-05-10T19:36:57.946Z,54.20
2023-05-10T19:40:00.273Z,54.81
2023-05-10T19:43:11.687Z,55.29
2023-05-10T19:46:13.995Z,55.04
2023-05-10T19:49:17.689Z,54.79
2023-05-10T19:52:20.802Z,54.03
2023-05-10T19:55:29.202Z,54.55
2023-05-10T19:58:31.552Z,54.98
2023-05-10T20:01:35.049Z,56.23
2023-05-10T20:04:38.352Z,57.67
2023-05-10T20:07:44.572Z,56.07
2023-05-10T20:10:47.107Z,55.46
2023-05-10T20:13:49.350Z,55.50
2023-05-10T20:16:57.875Z,56.75
2023-05-10T20:20:00.172Z,59.21
2023-05-10T20:23:02.464Z,57.01
2023-05-10T20:26:04.995Z,54.56
2023-05-10T20:29:07.385Z,54.50
2023-05-10T20:32:09.648Z,54.87
2023-05-10T20:35:17.975Z,56.23
2023-05-10T20:38:23.384Z,56.69
2023-05-10T20:41:27.108Z,56.13
2023-05-10T20:44:36.038Z,57.58
2023-05-10T20:47:39.867Z,56.39
2023-05-10T20:50:46.138Z,58.07
2023-05-10T20:53:52.024Z,57.10
2023-05-10T20:56:54.381Z,56.21
2023-05-10T20:59:57.821Z,56.57
2023-05-10T21:03:00.632Z,55.61
2023-05-10T21:06:03.827Z,55.44
2023-05-10T21:09:06.211Z,57.39
2023-05-10T21:12:09.407Z,56.76
2023-05-10T21:15:11.940Z,56.07
2023-05-10T21:18:17.098Z,55.70
2023-05-10T21:21:20.892Z,58.22
2023-05-10T21:24:23.359Z,56.99
2023-05-10T21:27:25.580Z,55.49
2023-05-10T21:30:28.105Z,55.98
2023-05-10T21:33:30.543Z,54.13
2023-05-10T21:36:32.851Z,53.73
2023-05-10T21:39:35.111Z,54.51
2023-05-10T21:42:37.389Z,53.63
2023-05-10T21:45:39.872Z,52.66
2023-05-10T21:48:42.228Z,53.65
2023-05-10T21:51:44.553Z,54.62
2023-05-10T21:54:46.903Z,53.30
2023-05-10T21:57:50.322Z,54.26
2023-05-10T22:00:52.601Z,56.40
2023-05-10T22:03:54.860Z,54.57
2023-05-10T22:06:57.274Z,54.33
2023-05-10T22:09:59.741Z,53.08
2023-05-10T22:13:02.000Z,54.42
2023-05-10T22:16:04.460Z,54.36
2023-05-10T22:19:07.128Z,54.71
2023-05-10T22:22:09.790Z,55.51
2023-05-10T22:25:12.125Z,53.62
2023-05-10T22:28:14.371Z,54.28
2023-05-10T22:31:16.682Z,54.06
2023-05-10T22:34:18.988Z,54.23
2023-05-10T22:37:21.276Z,54.86
2023-05-10T22:40:23.584Z,54.30
2023-05-10T22:43:25.867Z,54.63
2023-05-10T22:46:29.626Z,54.29
2023-05-10T22:49:33.210Z,54.42
2023-05-10T22:52:35.724Z,54.83
2023-05-10T22:55:38.066Z,53.94
2023-05-10T22:58:40.544Z,53.82
2023-05-10T23:01:43.085Z,53.28
2023-05-10T23:04:45.401Z,53.53
2023-05-10T23:07:52.982Z,53.16
2023-05-10T23:10:55.553Z,54.08
2023-05-10T23:13:57.846Z,54.78
2023-05-10T23:17:00.183Z,54.38
2023-05-10T23:20:03.126Z,54.12
2023-05-10T23:23:05.393Z,55.73
2023-05-10T23:26:08.846Z,55.37
2023-05-10T23:29:11.100Z,55.58
2023-05-10T23:32:13.411Z,55.50
2023-05-10T23:35:16.071Z,55.73
2023-05-10T23:38:18.325Z,58.40
2023-05-10T23:41:20.578Z,58.42
2023-05-10T23:44:23.516Z,55.65
2023-05-10T23:47:26.047Z,54.91
2023-05-10T23:50:28.400Z,54.14
2023-05-10T23:53:30.666Z,53.11
2023-05-10T23:56:33.088Z,53.36
2023-05-10T23:59:35.379Z,53.29
